createdAt,value
2018-08-24T00:01:32.502Z,100108.30
2018-08-24T00:06:36.660Z,100102.41
2018-08-24T00:11:40.539Z,100105.45
2018-08-24T00:16:44.088Z,100099.41
2018-08-24T00:21:48.448Z,100096.77
2018-08-24T00:26:52.034Z,100093.96
2018-08-24T00:31:55.607Z,100090.74
2018-08-24T00:36:59.174Z,100093.77
2018-08-24T00:42:02.661Z,100089.43
2018-08-24T00:47:06.205Z,100074.70
2018-08-24T00:52:10.063Z,100068.82
2018-08-24T00:57:18.101Z,100075.58
2018-08-24T01:02:21.646Z,100085.22
2018-08-24T01:07:25.289Z,100088.25
2018-08-24T01:12:28.862Z,100085.81
2018-08-24T01:17:38.289Z,100088.84
2018-08-24T01:22:42.086Z,100089.41
2018-08-24T01:27:45.642Z,100086.34
2018-08-24T01:32:49.532Z,100093.19
2018-08-24T01:37:53.669Z,100095.69
2018-08-24T01:42:57.270Z,100094.51
2018-08-24T01:48:00.807Z,100089.53
2018-08-24T01:53:04.409Z,100091.48
2018-08-24T01:58:07.960Z,100086.58
2018-08-24T02:03:11.497Z,100079.72
2018-08-24T02:08:15.108Z,100083.74
2018-08-24T02:13:23.983Z,100092.58
2018-08-24T02:19:36.770Z,100095.89
2018-08-24T02:24:40.310Z,100086.66
2018-08-24T02:29:44.343Z,100090.20
2018-08-24T02:34:48.007Z,100088.17
2018-08-24T02:39:51.565Z,100090.81
2018-08-24T02:44:55.715Z,100087.87
2018-08-24T02:49:59.760Z,100096.85
2018-08-24T02:55:03.459Z,100099.58
2018-08-24T03:00:07.376Z,100092.78
2018-08-24T03:05:10.963Z,100093.69
2018-08-24T03:10:14.570Z,100086.73
2018-08-24T03:15:18.165Z,100086.43
2018-08-24T03:20:22.025Z,100090.41
2018-08-24T03:25:25.514Z,100084.87
2018-08-24T03:30:29.265Z,100085.72
2018-08-24T03:35:32.889Z,100086.45
2018-08-24T03:40:36.458Z,100092.65
2018-08-24T03:45:40.072Z,100095.05
2018-08-24T03:50:43.649Z,100100.09
2018-08-24T03:55:47.141Z,100096.14
2018-08-24T04:00:54.509Z,100098.61
2018-08-24T04:05:58.022Z,100105.88
2018-08-24T04:11:01.651Z,100104.95
2018-08-24T04:16:05.709Z,100115.66
2018-08-24T04:21:09.635Z,100117.23
2018-08-24T04:26:14.762Z,100117.36
2018-08-24T04:31:18.402Z,100121.09
2018-08-24T04:36:21.893Z,100120.94
2018-08-24T04:41:25.529Z,100119.15
2018-08-24T04:46:29.156Z,100118.30
2018-08-24T04:51:32.729Z,100117.11
2018-08-24T04:56:36.434Z,100127.77
2018-08-24T05:01:39.928Z,100129.64
2018-08-24T05:06:45.496Z,100133.38
2018-08-24T05:11:49.071Z,100130.88
2018-08-24T05:16:52.594Z,100134.61
2018-08-24T05:21:56.235Z,100142.98
2018-08-24T05:26:59.667Z,100145.48
2018-08-24T05:32:04.008Z,100149.52
2018-08-24T05:37:07.581Z,100137.55
2018-08-24T05:42:11.165Z,100141.51
2018-08-24T05:47:14.900Z,100140.49
2018-08-24T05:52:18.513Z,100142.66
2018-08-24T05:57:23.095Z,100146.66
2018-08-24T06:02:26.749Z,100148.61
2018-08-24T06:07:30.382Z,100146.91
2018-08-24T06:12:33.921Z,100152.39
2018-08-24T06:17:42.861Z,100158.64
2018-08-24T06:22:46.461Z,100161.42
2018-08-24T06:27:50.041Z,100161.42
2018-08-24T06:32:53.601Z,100163.31
2018-08-24T06:37:57.109Z,100167.27
2018-08-24T06:43:00.629Z,100162.60
2018-08-24T06:48:04.742Z,100174.03
2018-08-24T06:53:08.575Z,100174.27
2018-08-24T06:58:12.264Z,100179.63
2018-08-24T07:03:15.748Z,100191.89
2018-08-24T07:08:19.922Z,100183.67
2018-08-24T07:13:23.427Z,100172.97
2018-08-24T07:18:26.992Z,100179.47
2018-08-24T07:23:30.578Z,100180.55
2018-08-24T07:28:34.337Z,100183.02
2018-08-24T07:33:38.059Z,100187.51
2018-08-24T07:38:41.659Z,100196.23
2018-08-24T07:43:45.191Z,100186.95
2018-08-24T07:48:48.674Z,100174.67
2018-08-24T07:53:52.952Z,100177.55
2018-08-24T07:58:56.811Z,100182.67
2018-08-24T08:04:01.795Z,100198.52
2018-08-24T08:09:07.592Z,100198.25
2018-08-24T08:14:11.536Z,100197.25
2018-08-24T08:19:15.617Z,100196.77
2018-08-24T08:24:19.222Z,100204.47
2018-08-24T08:29:28.466Z,100209.37
2018-08-24T08:34:36.612Z,100216.11
2018-08-24T08:39:40.933Z,100218.59
2018-08-24T08:44:45.048Z,100226.76
2018-08-24T08:49:48.633Z,100235.75
2018-08-24T08:54:52.581Z,100248.78
2018-08-24T08:59:56.147Z,100250.02
2018-08-24T09:04:59.805Z,100259.42
2018-08-24T09:10:04.167Z,100263.63
2018-08-24T09:15:07.823Z,100270.33
2018-08-24T09:20:16.777Z,100285.50
2018-08-24T09:26:25.326Z,100279.28
2018-08-24T09:31:31.643Z,100290.52
2018-08-24T09:36:35.363Z,100289.02
2018-08-24T09:41:39.081Z,100292.62
2018-08-24T09:47:49.163Z,100300.33
2018-08-24T09:52:58.224Z,100297.63
2018-08-24T09:58:01.879Z,100300.18
2018-08-24T10:03:10.780Z,100288.69
2018-08-24T10:08:19.460Z,100300.02
2018-08-24T10:13:24.171Z,100298.52
2018-08-24T10:18:30.233Z,100287.70
2018-08-24T10:23:33.819Z,100286.58
2018-08-24T10:28:37.424Z,100277.83
2018-08-24T10:33:41.238Z,100271.20
2018-08-24T10:38:44.774Z,100275.28
2018-08-24T10:43:48.410Z,100274.69
2018-08-24T10:48:52.034Z,100286.95
2018-08-24T10:53:56.741Z,100288.48
2018-08-24T10:59:00.683Z,100289.02
2018-08-24T11:04:04.246Z,100290.21
2018-08-24T11:09:09.661Z,100288.11
2018-08-24T11:14:13.531Z,100304.03
2018-08-24T11:19:17.266Z,100280.03
2018-08-24T11:24:21.489Z,100296.32
2018-08-24T11:29:25.176Z,100295.80
2018-08-24T11:34:29.771Z,100286.30
2018-08-24T11:39:33.887Z,100296.07
2018-08-24T11:44:37.535Z,100292.11
2018-08-24T11:49:41.018Z,100294.20
2018-08-24T11:54:44.636Z,100282.27
2018-08-24T11:59:48.253Z,100296.17
2018-08-24T12:04:51.958Z,100301.17
2018-08-24T12:09:55.441Z,100305.75
2018-08-24T12:14:59.000Z,100296.36
2018-08-24T12:20:02.519Z,100295.97
2018-08-24T12:25:06.712Z,100298.90
2018-08-24T12:30:12.391Z,100311.95
2018-08-24T12:35:16.041Z,100304.30
2018-08-24T12:40:19.596Z,100305.91
2018-08-24T12:45:23.282Z,100298.63
2018-08-24T12:50:27.081Z,100305.03
2018-08-24T12:55:39.016Z,100298.05
2018-08-24T13:00:42.787Z,100292.61
2018-08-24T13:05:46.560Z,100293.77
2018-08-24T13:10:50.281Z,100286.00
2018-08-24T13:15:53.817Z,100286.48
2018-08-24T13:20:58.205Z,100281.92
2018-08-24T13:26:03.090Z,100274.98
2018-08-24T13:31:06.650Z,100264.53
2018-08-24T13:36:10.230Z,100264.00
2018-08-24T13:41:13.839Z,100266.12
2018-08-24T13:46:19.143Z,100264.63
2018-08-24T13:51:22.732Z,100274.08
2018-08-24T13:56:26.353Z,100266.31
2018-08-24T14:01:30.093Z,100259.13
2018-08-24T14:06:33.747Z,100252.23
2018-08-24T14:11:37.504Z,100260.67
2018-08-24T14:16:41.053Z,100263.44
2018-08-24T14:21:44.753Z,100256.04
2018-08-24T14:26:48.325Z,100254.28
2018-08-24T14:31:51.979Z,100261.72
2018-08-24T14:36:55.482Z,100250.34
2018-08-24T14:41:59.147Z,100244.64
2018-08-24T14:47:02.709Z,100250.42
2018-08-24T14:52:06.718Z,100233.00
2018-08-24T14:57:10.463Z,100235.77
2018-08-24T15:02:13.938Z,100235.83
2018-08-24T15:07:17.701Z,100245.66
2018-08-24T15:12:21.218Z,100241.13
2018-08-24T15:17:24.832Z,100253.27
2018-08-24T15:22:28.402Z,100252.87
2018-08-24T15:27:31.992Z,100247.02
2018-08-24T15:32:35.541Z,100245.10
2018-08-24T15:37:40.455Z,100257.39
2018-08-24T15:42:43.968Z,100262.45
2018-08-24T15:47:47.559Z,100253.80
2018-08-24T15:52:51.239Z,100246.27
2018-08-24T15:57:54.796Z,100252.02
2018-08-24T16:02:58.262Z,100248.95
2018-08-24T16:08:01.832Z,100251.04
2018-08-24T16:13:05.576Z,100247.95
2018-08-24T16:18:14.779Z,100252.08
2018-08-24T16:23:18.446Z,100251.84
2018-08-24T16:28:21.975Z,100257.07
2018-08-24T16:33:25.465Z,100255.31
2018-08-24T16:38:29.049Z,100253.19
2018-08-24T16:43:32.568Z,100260.16
2018-08-24T16:48:36.417Z,100265.36
2018-08-24T16:53:40.569Z,100277.84
2018-08-24T16:58:44.349Z,100280.97
2018-08-24T17:03:48.038Z,100292.42
2018-08-24T17:08:52.142Z,100295.69
2018-08-24T17:13:56.145Z,100300.97
2018-08-24T17:19:00.566Z,100298.18
2018-08-24T17:24:04.210Z,100292.98
2018-08-24T17:29:07.769Z,100289.04
2018-08-24T17:34:11.328Z,100291.77
2018-08-24T17:39:15.159Z,100293.72
2018-08-24T17:44:19.163Z,100287.05
2018-08-24T17:49:22.694Z,100285.10
2018-08-24T17:54:26.243Z,100283.92
2018-08-24T17:59:29.789Z,100276.47
2018-08-24T18:04:33.864Z,100273.77
2018-08-24T18:09:37.442Z,100274.17
2018-08-24T18:14:42.677Z,100277.67
2018-08-24T18:19:46.239Z,100288.39
2018-08-24T18:24:50.370Z,100285.59
2018-08-24T18:29:54.151Z,100293.72
2018-08-24T18:34:58.212Z,100288.45
2018-08-24T18:40:02.708Z,100292.02
2018-08-24T18:45:06.595Z,100293.38
2018-08-24T18:50:10.901Z,100298.48
2018-08-24T18:55:14.565Z,100295.83
2018-08-24T19:00:24.291Z,100301.23
2018-08-24T19:05:28.170Z,100313.94
2018-08-24T19:10:35.919Z,100314.48
2018-08-24T19:15:39.445Z,100311.09
2018-08-24T19:20:48.499Z,100324.48
2018-08-24T19:25:51.972Z,100321.20
2018-08-24T19:30:55.583Z,100321.81
2018-08-24T19:36:00.230Z,100334.82
2018-08-24T19:41:09.122Z,100337.11
2018-08-24T19:46:22.824Z,100341.06
2018-08-24T19:51:26.702Z,100345.40
2018-08-24T19:56:30.276Z,100346.13
2018-08-24T20:01:34.892Z,100350.77
2018-08-24T20:06:44.244Z,100346.39
2018-08-24T20:11:49.000Z,100350.88
2018-08-24T20:16:58.180Z,100345.22
2018-08-24T20:22:01.997Z,100347.06
2018-08-24T20:27:06.143Z,100335.01
2018-08-24T20:32:09.760Z,100334.85
2018-08-24T20:37:13.909Z,100335.36
2018-08-24T20:42:18.056Z,100329.84
2018-08-24T20:47:21.707Z,100324.97
2018-08-24T20:52:25.248Z,100323.02
2018-08-24T20:57:28.855Z,100309.32
2018-08-24T21:02:32.729Z,100312.98
2018-08-24T21:07:36.319Z,100305.78
2018-08-24T21:12:40.385Z,100304.31
2018-08-24T21:17:44.198Z,100295.00
2018-08-24T21:22:48.314Z,100299.52
2018-08-24T21:27:52.998Z,100291.31
2018-08-24T21:32:56.595Z,100287.94
2018-08-24T21:38:00.125Z,100281.67
2018-08-24T21:43:03.716Z,100283.56
2018-08-24T21:48:07.470Z,100290.72
2018-08-24T21:53:11.107Z,100287.94
2018-08-24T21:58:14.833Z,100280.58
2018-08-24T22:03:18.384Z,100279.38
2018-08-24T22:08:21.962Z,100272.70
2018-08-24T22:13:25.502Z,100264.74
2018-08-24T22:18:29.543Z,100270.56
2018-08-24T22:23:33.151Z,100255.95
2018-08-24T22:28:36.856Z,100256.20
2018-08-24T22:33:40.433Z,100260.91
2018-08-24T22:38:43.927Z,100259.14
2018-08-24T22:43:47.479Z,100258.13
2018-08-24T22:48:50.935Z,100258.34
2018-08-24T22:53:54.960Z,100267.41
2018-08-24T22:58:58.826Z,100260.16
2018-08-24T23:04:02.382Z,100257.30
2018-08-24T23:09:08.502Z,100249.94
2018-08-24T23:14:12.073Z,100241.73
2018-08-24T23:19:16.479Z,100228.11
2018-08-24T23:24:20.020Z,100227.42
2018-08-24T23:29:24.106Z,100224.80
2018-08-24T23:34:27.867Z,100218.69
2018-08-24T23:39:31.505Z,100200.89
2018-08-24T23:44:35.102Z,100193.17
2018-08-24T23:49:38.978Z,100195.27
2018-08-24T23:54:42.658Z,100183.95
2018-08-24T23:59:46.217Z,100183.72
